Time;durP1;ratioP1;P1;durP2;ratioP2;P2;SDS_P1;SDS_P2;PMS_P1;PMS_P2;Temp;Humidity;BMP_temperature;BMP_pressure;BME280_temperature;BME280_humidity;BME280_pressure;Samples;Min_cycle;Max_cycle;Signal;HPM_P1;HPM_P2
2022/01/03 00:01:08;;;;;;;15.68;9.10;;;;;;;;;;5018228;28;20037;-83
2022/01/03 00:03:35;;;;;;;15.02;9.18;;;;;;;;;;5035608;28;20159;-83
2022/01/03 00:06:03;;;;;;;17.45;10.40;;;;;;;;;;5018594;28;20116;-83
2022/01/03 00:08:30;;;;;;;17.60;10.40;;;;;;;;;;5035708;28;20443;-84
2022/01/03 00:10:57;;;;;;;15.18;10.05;;;;;;;;;;5036597;28;20052;-83
2022/01/03 00:13:23;;;;;;;22.42;10.15;;;;;;;;;;5035992;28;20025;-85
2022/01/03 00:15:52;;;;;;;19.23;10.30;;;;;;;;;;5036018;28;20037;-83
2022/01/03 00:18:19;;;;;;;17.65;10.15;;;;;;;;;;5021038;28;20045;-83
2022/01/03 00:20:52;;;;;;;16.90;9.18;;;;;;;;;;5019221;28;20489;-83
2022/01/03 00:23:21;;;;;;;17.20;9.65;;;;;;;;;;5013491;28;20029;-83
2022/01/03 00:25:51;;;;;;;23.48;11.95;;;;;;;;;;5016431;28;20489;-83
2022/01/03 00:28:24;;;;;;;18.85;10.20;;;;;;;;;;5015617;28;20017;-82
2022/01/03 00:30:54;;;;;;;17.45;10.02;;;;;;;;;;5016134;28;20061;-84
2022/01/03 00:33:20;;;;;;;19.88;10.15;;;;;;;;;;5015562;28;20058;-84
2022/01/03 00:35:53;;;;;;;20.77;10.23;;;;;;;;;;5014982;28;20056;-83
2022/01/03 00:38:20;;;;;;;17.95;10.18;;;;;;;;;;5015713;28;20121;-84
2022/01/03 00:40:46;;;;;;;18.10;10.30;;;;;;;;;;5022739;28;20029;-84
2022/01/03 00:43:13;;;;;;;19.70;9.82;;;;;;;;;;5010830;28;20721;-83
2022/01/03 00:45:40;;;;;;;16.38;10.18;;;;;;;;;;5011435;28;20486;-83
2022/01/03 00:48:10;;;;;;;16.23;9.52;;;;;;;;;;5004281;28;20080;-84
2022/01/03 00:50:37;;;;;;;20.23;10.90;;;;;;;;;;5003276;28;20030;-82
2022/01/03 00:53:04;;;;;;;18.58;9.88;;;;;;;;;;5003677;28;20029;-84
2022/01/03 00:55:30;;;;;;;15.73;9.25;;;;;;;;;;5013536;28;20056;-83
2022/01/03 00:57:59;;;;;;;18.08;10.00;;;;;;;;;;5014766;28;20046;-84
2022/01/03 01:00:26;;;;;;;19.05;10.18;;;;;;;;;;5015404;28;20075;-83
2022/01/03 01:03:05;;;;;;;17.15;9.07;;;;;;;;;;5014687;28;20382;-84
2022/01/03 01:05:32;;;;;;;17.42;10.68;;;;;;;;;;5015395;28;20033;-84
2022/01/03 01:07:59;;;;;;;21.20;11.05;;;;;;;;;;5014010;28;20025;-84
2022/01/03 01:10:30;;;;;;;22.38;11.65;;;;;;;;;;5009499;28;20019;-84
2022/01/03 01:12:56;;;;;;;27.38;15.30;;;;;;;;;;5011428;28;20030;-84
2022/01/03 01:15:23;;;;;;;24.48;12.98;;;;;;;;;;5006900;28;20034;-83
2022/01/03 01:17:52;;;;;;;27.92;13.38;;;;;;;;;;5006065;28;20050;-84
2022/01/03 01:20:20;;;;;;;31.13;14.80;;;;;;;;;;5031025;28;20037;-84
2022/01/03 01:22:47;;;;;;;26.05;13.75;;;;;;;;;;5016693;28;20033;-84
2022/01/03 01:27:47;;;;;;;34.47;15.32;;;;;;;;;;5027181;28;20065;-83
2022/01/03 01:30:15;;;;;;;33.97;14.43;;;;;;;;;;5027846;28;20471;-84
2022/01/03 01:32:43;;;;;;;30.70;15.57;;;;;;;;;;5034903;28;20083;-84
2022/01/03 01:35:09;;;;;;;42.05;23.13;;;;;;;;;;5019377;28;20059;-83
2022/01/03 01:37:37;;;;;;;42.97;23.98;;;;;;;;;;5027533;28;20087;-84
2022/01/03 01:40:04;;;;;;;36.30;20.27;;;;;;;;;;5043813;28;20476;-84
2022/01/03 01:42:31;;;;;;;34.53;21.45;;;;;;;;;;5016710;28;20107;-84
2022/01/03 01:45:01;;;;;;;39.55;19.30;;;;;;;;;;5032375;28;20037;-84
2022/01/03 01:47:30;;;;;;;33.90;19.13;;;;;;;;;;5027763;28;20030;-84
2022/01/03 01:49:57;;;;;;;40.40;19.98;;;;;;;;;;5028464;28;20033;-84
2022/01/03 01:52:24;;;;;;;35.40;20.40;;;;;;;;;;5024735;28;20489;-83
2022/01/03 01:54:57;;;;;;;44.85;20.27;;;;;;;;;;5033021;28;20091;-84
2022/01/03 01:57:25;;;;;;;36.47;20.33;;;;;;;;;;5023779;28;20034;-84
2022/01/03 02:00:11;;;;;;;33.55;20.60;;;;;;;;;;5032864;28;20033;-83
2022/01/03 02:02:46;;;;;;;52.30;30.42;;;;;;;;;;5015474;28;20036;-82
2022/01/03 02:05:15;;;;;;;63.38;35.50;;;;;;;;;;5011256;28;20029;-83
2022/01/03 02:07:44;;;;;;;63.53;39.28;;;;;;;;;;5022365;28;21069;-83
2022/01/03 02:10:12;;;;;;;69.60;39.75;;;;;;;;;;5029657;28;20443;-85
2022/01/03 02:12:40;;;;;;;67.97;41.67;;;;;;;;;;5008471;28;20037;-83
2022/01/03 02:15:10;;;;;;;61.70;37.53;;;;;;;;;;5031369;28;20053;-83
2022/01/03 02:17:37;;;;;;;58.47;35.63;;;;;;;;;;5002486;28;20084;-84
2022/01/03 02:20:14;;;;;;;52.25;32.55;;;;;;;;;;5014792;28;20053;-83
2022/01/03 02:22:42;;;;;;;64.47;32.53;;;;;;;;;;5010719;28;20030;-84
2022/01/03 02:25:09;;;;;;;63.05;31.67;;;;;;;;;;4996572;28;20384;-86
2022/01/03 02:27:37;;;;;;;53.20;27.70;;;;;;;;;;5013981;28;20037;-84
2022/01/03 02:30:08;;;;;;;49.25;30.02;;;;;;;;;;5005088;28;20025;-83
2022/01/03 02:32:34;;;;;;;56.08;29.05;;;;;;;;;;5014016;28;20032;-83
2022/01/03 02:35:01;;;;;;;62.35;30.10;;;;;;;;;;5013839;28;20038;-83
2022/01/03 02:37:27;;;;;;;60.20;28.63;;;;;;;;;;4995229;28;20030;-84
2022/01/03 02:39:54;;;;;;;55.05;28.15;;;;;;;;;;4994442;28;20512;-84
2022/01/03 02:42:23;;;;;;;50.60;26.27;;;;;;;;;;4993743;28;20181;-84
2022/01/03 02:45:10;;;;;;;47.97;26.77;;;;;;;;;;4985837;28;20026;-83
2022/01/03 02:47:36;;;;;;;45.50;25.63;;;;;;;;;;5000439;28;20511;-83
2022/01/03 02:50:04;;;;;;;55.45;27.80;;;;;;;;;;5003821;28;20378;-84
2022/01/03 02:52:30;;;;;;;38.83;22.43;;;;;;;;;;5006073;28;20120;-84
2022/01/03 02:54:57;;;;;;;38.83;22.20;;;;;;;;;;4993852;28;20029;-84
2022/01/03 02:57:23;;;;;;;53.63;28.55;;;;;;;;;;5004285;28;20026;-83
2022/01/03 02:59:54;;;;;;;46.78;28.70;;;;;;;;;;5003903;28;20034;-83
2022/01/03 03:02:22;;;;;;;44.30;25.58;;;;;;;;;;5005162;28;20501;-84
2022/01/03 03:04:55;;;;;;;45.67;25.20;;;;;;;;;;4990344;28;20022;-84
2022/01/03 03:07:24;;;;;;;52.15;28.23;;;;;;;;;;4991897;28;20023;-84
2022/01/03 03:09:50;;;;;;;61.85;36.83;;;;;;;;;;5000517;28;20037;-84
2022/01/03 03:12:16;;;;;;;75.22;38.58;;;;;;;;;;5006611;28;20096;-83
2022/01/03 03:14:43;;;;;;;72.88;37.85;;;;;;;;;;5005854;28;20460;-83
2022/01/03 03:17:09;;;;;;;73.97;36.20;;;;;;;;;;5001737;28;20108;-84
2022/01/03 03:19:55;;;;;;;67.47;34.42;;;;;;;;;;5014467;28;20050;-83
2022/01/03 03:22:22;;;;;;;44.13;22.40;;;;;;;;;;4989483;28;20376;-84
2022/01/03 03:24:49;;;;;;;41.63;21.33;;;;;;;;;;5005339;28;20022;-84
2022/01/03 03:27:15;;;;;;;42.92;23.02;;;;;;;;;;5007570;28;20376;-84
2022/01/03 03:29:49;;;;;;;45.97;22.92;;;;;;;;;;5023941;28;20117;-84
2022/01/03 03:32:16;;;;;;;47.58;23.75;;;;;;;;;;5026438;28;20025;-84
2022/01/03 03:34:43;;;;;;;53.03;26.83;;;;;;;;;;5026453;28;20037;-84
2022/01/03 03:37:09;;;;;;;50.83;26.52;;;;;;;;;;5007623;28;20052;-85
2022/01/03 03:39:36;;;;;;;68.95;31.98;;;;;;;;;;5010547;28;20021;-85
2022/01/03 03:42:05;;;;;;;66.38;34.03;;;;;;;;;;5024435;28;20041;-85
2022/01/03 03:44:32;;;;;;;61.78;32.92;;;;;;;;;;5027348;28;20026;-85
2022/01/03 03:46:58;;;;;;;62.75;31.98;;;;;;;;;;5020505;28;20029;-84
2022/01/03 03:49:24;;;;;;;63.88;35.90;;;;;;;;;;5023796;28;20029;-86
2022/01/03 03:51:51;;;;;;;71.32;32.88;;;;;;;;;;5006476;28;20037;-85
2022/01/03 03:54:18;;;;;;;62.33;32.13;;;;;;;;;;5009347;28;20560;-83
2022/01/03 03:56:44;;;;;;;63.10;30.98;;;;;;;;;;5025041;28;20039;-85
2022/01/03 03:59:11;;;;;;;60.42;29.13;;;;;;;;;;5002737;28;20038;-84
2022/01/03 04:01:37;;;;;;;55.10;27.98;;;;;;;;;;5006607;28;20276;-84
2022/01/03 04:04:03;;;;;;;55.72;24.30;;;;;;;;;;5020796;28;20061;-87
2022/01/03 04:06:30;;;;;;;45.25;22.08;;;;;;;;;;5021984;28;20021;-85
2022/01/03 04:08:56;;;;;;;48.70;23.70;;;;;;;;;;5004636;28;20037;-84
2022/01/03 04:11:23;;;;;;;49.33;23.42;;;;;;;;;;5012119;28;20507;-84
2022/01/03 04:13:50;;;;;;;48.75;24.15;;;;;;;;;;5028428;28;20021;-84
2022/01/03 04:16:16;;;;;;;52.17;25.73;;;;;;;;;;5012090;28;20036;-83
2022/01/03 04:18:42;;;;;;;48.92;23.95;;;;;;;;;;5027694;28;20041;-84
2022/01/03 04:21:09;;;;;;;48.22;26.38;;;;;;;;;;5029957;28;20061;-83
2022/01/03 04:23:36;;;;;;;45.22;22.25;;;;;;;;;;5028962;28;20076;-83
2022/01/03 04:26:04;;;;;;;53.70;24.25;;;;;;;;;;5025504;28;20029;-84
2022/01/03 04:28:30;;;;;;;44.47;23.00;;;;;;;;;;5013302;28;20112;-84
2022/01/03 04:30:57;;;;;;;43.60;24.73;;;;;;;;;;5032939;28;20088;-84
2022/01/03 04:33:23;;;;;;;51.35;28.58;;;;;;;;;;5006230;28;20029;-84
2022/01/03 04:35:50;;;;;;;47.20;25.63;;;;;;;;;;5037519;28;20029;-83
2022/01/03 04:38:18;;;;;;;38.78;24.25;;;;;;;;;;5038174;28;20521;-83
2022/01/03 04:40:44;;;;;;;48.05;27.15;;;;;;;;;;5017347;28;20030;-83
2022/01/03 04:43:12;;;;;;;38.22;20.45;;;;;;;;;;5029354;28;20037;-86
2022/01/03 04:45:38;;;;;;;38.65;19.58;;;;;;;;;;5025992;28;20029;-84
2022/01/03 04:48:04;;;;;;;31.48;17.25;;;;;;;;;;5031204;28;20324;-85
2022/01/03 04:50:31;;;;;;;27.08;15.68;;;;;;;;;;5007115;28;20017;-84
2022/01/03 04:52:57;;;;;;;25.08;11.40;;;;;;;;;;5027982;28;20014;-84
2022/01/03 04:55:23;;;;;;;22.17;11.07;;;;;;;;;;5030122;28;20057;-83
2022/01/03 04:57:53;;;;;;;30.17;16.25;;;;;;;;;;5029163;28;20017;-83
2022/01/03 05:00:21;;;;;;;22.08;12.60;;;;;;;;;;5028305;28;20404;-84
2022/01/03 05:02:47;;;;;;;28.67;14.10;;;;;;;;;;5011422;28;20490;-83
2022/01/03 05:05:14;;;;;;;37.35;15.10;;;;;;;;;;5029167;28;20026;-86
2022/01/03 05:07:40;;;;;;;23.90;13.05;;;;;;;;;;5033729;28;20072;-83
2022/01/03 05:10:07;;;;;;;22.38;12.05;;;;;;;;;;5028080;28;20460;-82
2022/01/03 05:12:33;;;;;;;28.77;15.88;;;;;;;;;;5030047;28;20025;-83
2022/01/03 05:14:59;;;;;;;38.95;19.83;;;;;;;;;;5015885;28;20032;-84
2022/01/03 05:17:27;;;;;;;56.55;32.50;;;;;;;;;;5031964;28;20025;-83
2022/01/03 05:19:53;;;;;;;54.70;32.50;;;;;;;;;;5036356;28;20045;-84
2022/01/03 05:22:20;;;;;;;56.17;33.40;;;;;;;;;;5034373;28;20025;-84
2022/01/03 05:24:46;;;;;;;65.55;38.83;;;;;;;;;;5034454;28;20029;-85
2022/01/03 05:27:12;;;;;;;73.90;44.20;;;;;;;;;;5034569;28;20108;-85
2022/01/03 05:29:39;;;;;;;82.03;48.85;;;;;;;;;;5008617;28;20018;-84
2022/01/03 05:32:05;;;;;;;90.68;54.50;;;;;;;;;;5011798;28;20120;-83
2022/01/03 05:34:31;;;;;;;81.05;51.72;;;;;;;;;;5014755;28;20029;-82
2022/01/03 05:36:57;;;;;;;87.32;53.72;;;;;;;;;;5032037;28;20041;-84
2022/01/03 05:39:24;;;;;;;85.90;55.78;;;;;;;;;;5011753;28;20029;-84
2022/01/03 05:41:50;;;;;;;89.93;54.05;;;;;;;;;;5005983;28;20025;-84
2022/01/03 05:44:18;;;;;;;89.53;52.60;;;;;;;;;;5008101;28;20029;-83
2022/01/03 05:46:44;;;;;;;73.70;46.17;;;;;;;;;;5027865;28;20053;-84
2022/01/03 05:49:11;;;;;;;68.55;42.42;;;;;;;;;;5018004;28;20026;-84
2022/01/03 05:51:38;;;;;;;60.80;39.50;;;;;;;;;;5004589;28;20117;-84
2022/01/03 05:54:04;;;;;;;52.40;32.55;;;;;;;;;;5027626;28;20033;-84
2022/01/03 05:56:31;;;;;;;50.33;33.00;;;;;;;;;;5014683;28;20017;-83
2022/01/03 05:58:57;;;;;;;57.08;33.40;;;;;;;;;;5031413;28;20029;-84
2022/01/03 06:01:25;;;;;;;53.05;33.58;;;;;;;;;;5013990;28;20033;-85
2022/01/03 06:04:01;;;;;;;52.50;30.58;;;;;;;;;;5008728;28;20025;-86
2022/01/03 06:09:14;;;;;;;43.58;30.30;;;;;;;;;;5025848;28;20119;-84
2022/01/03 06:11:41;;;;;;;48.20;30.10;;;;;;;;;;5025406;28;20049;-84
2022/01/03 06:14:07;;;;;;;48.58;29.85;;;;;;;;;;5031322;28;20061;-84
2022/01/03 06:16:33;;;;;;;51.38;31.30;;;;;;;;;;5029542;28;20037;-84
2022/01/03 06:19:00;;;;;;;48.80;30.27;;;;;;;;;;5031946;28;20066;-83
2022/01/03 06:21:26;;;;;;;47.33;29.45;;;;;;;;;;5031759;28;20099;-83
2022/01/03 06:23:52;;;;;;;54.08;30.45;;;;;;;;;;5014507;28;20128;-84
2022/01/03 06:26:19;;;;;;;41.33;27.55;;;;;;;;;;5011197;28;20025;-85
2022/01/03 06:28:45;;;;;;;52.63;29.33;;;;;;;;;;5014557;28;20542;-84
2022/01/03 06:31:11;;;;;;;46.33;28.10;;;;;;;;;;5034289;28;20043;-83
2022/01/03 06:33:38;;;;;;;46.95;29.48;;;;;;;;;;5030146;28;20484;-84
2022/01/03 06:36:05;;;;;;;46.63;29.02;;;;;;;;;;5027310;28;20507;-84
2022/01/03 06:38:31;;;;;;;51.10;31.13;;;;;;;;;;5029804;28;20025;-84
2022/01/03 06:40:57;;;;;;;50.47;29.70;;;;;;;;;;5029127;28;20039;-85
2022/01/03 06:43:23;;;;;;;48.55;30.63;;;;;;;;;;5030838;28;20029;-85
2022/01/03 06:45:50;;;;;;;56.67;31.15;;;;;;;;;;5010382;28;20036;-84
2022/01/03 06:48:16;;;;;;;52.97;30.23;;;;;;;;;;5008337;28;20112;-84
2022/01/03 06:50:42;;;;;;;46.63;29.08;;;;;;;;;;5028813;28;20029;-83
2022/01/03 06:53:09;;;;;;;41.13;26.33;;;;;;;;;;5030740;28;20048;-84
2022/01/03 06:55:35;;;;;;;44.33;25.55;;;;;;;;;;5029892;28;20030;-84
2022/01/03 06:58:01;;;;;;;43.17;26.30;;;;;;;;;;5026168;28;20511;-84
2022/01/03 07:00:27;;;;;;;56.30;37.05;;;;;;;;;;5026784;28;20101;-84
2022/01/03 07:02:54;;;;;;;96.82;59.95;;;;;;;;;;5032322;28;20034;-84
2022/01/03 07:05:20;;;;;;;121.25;74.80;;;;;;;;;;5032609;28;20101;-85
2022/01/03 07:07:46;;;;;;;130.73;83.85;;;;;;;;;;5023522;28;20017;-84
2022/01/03 07:10:14;;;;;;;138.40;83.68;;;;;;;;;;5025909;28;20053;-84
2022/01/03 07:12:40;;;;;;;119.75;81.82;;;;;;;;;;5022850;28;20057;-83
2022/01/03 07:20:38;;;;;;;100.88;65.40;;;;;;;;;;5028826;28;20172;-85
2022/01/03 07:23:05;;;;;;;103.22;63.47;;;;;;;;;;5031135;28;20029;-86
2022/01/03 07:25:31;;;;;;;98.45;59.83;;;;;;;;;;5036604;28;20036;-86
2022/01/03 07:27:57;;;;;;;96.63;57.67;;;;;;;;;;5039471;28;20025;-85
2022/01/03 07:30:24;;;;;;;86.43;52.42;;;;;;;;;;5027749;28;20034;-84
2022/01/03 07:32:50;;;;;;;81.60;49.45;;;;;;;;;;5030645;28;20026;-85
2022/01/03 07:35:17;;;;;;;70.45;43.92;;;;;;;;;;5036321;28;20540;-82
2022/01/03 07:37:43;;;;;;;74.45;46.30;;;;;;;;;;5013444;28;20044;-83
2022/01/03 07:40:10;;;;;;;60.63;38.33;;;;;;;;;;5014716;28;20080;-86
2022/01/03 07:42:36;;;;;;;61.72;37.55;;;;;;;;;;5012867;28;20541;-85
2022/01/03 07:45:02;;;;;;;60.25;37.17;;;;;;;;;;5031785;28;20091;-84
2022/01/03 07:47:29;;;;;;;53.38;32.83;;;;;;;;;;5035749;28;20488;-83
2022/01/03 07:49:55;;;;;;;51.45;31.60;;;;;;;;;;5035898;28;20025;-85
2022/01/03 07:52:21;;;;;;;50.60;31.83;;;;;;;;;;5036029;28;20111;-86
2022/01/03 07:54:49;;;;;;;52.65;31.83;;;;;;;;;;5029826;28;20120;-83
2022/01/03 07:57:15;;;;;;;56.10;31.58;;;;;;;;;;5035352;28;20021;-84
2022/01/03 07:59:41;;;;;;;55.58;32.92;;;;;;;;;;5036286;28;20022;-84
2022/01/03 08:02:08;;;;;;;49.13;29.63;;;;;;;;;;5010972;28;20033;-85
2022/01/03 08:04:35;;;;;;;48.40;27.55;;;;;;;;;;5025213;28;20472;-87
2022/01/03 08:07:01;;;;;;;46.70;27.85;;;;;;;;;;5011671;28;20063;-87
2022/01/03 08:09:27;;;;;;;43.70;25.55;;;;;;;;;;5011440;28;20018;-85
2022/01/03 08:11:54;;;;;;;57.58;33.80;;;;;;;;;;5013566;28;20033;-83
2022/01/03 08:14:20;;;;;;;45.80;26.65;;;;;;;;;;5011054;28;20036;-83
2022/01/03 08:16:49;;;;;;;57.47;33.42;;;;;;;;;;5010605;28;20033;-83
2022/01/03 08:19:15;;;;;;;53.38;29.92;;;;;;;;;;5033538;28;20129;-86
2022/01/03 08:21:41;;;;;;;57.25;34.58;;;;;;;;;;5013768;28;20049;-83
2022/01/03 08:24:08;;;;;;;74.20;44.83;;;;;;;;;;5028752;28;20039;-83
2022/01/03 08:26:38;;;;;;;44.45;28.25;;;;;;;;;;5029566;28;20060;-83
2022/01/03 08:29:05;;;;;;;49.20;30.52;;;;;;;;;;5010589;28;20032;-84
2022/01/03 08:31:31;;;;;;;51.15;29.95;;;;;;;;;;5030296;28;20029;-84
2022/01/03 08:33:58;;;;;;;51.97;30.88;;;;;;;;;;5032417;28;20075;-83
2022/01/03 08:36:24;;;;;;;49.08;30.25;;;;;;;;;;5027720;28;20083;-84
2022/01/03 08:38:51;;;;;;;47.97;30.52;;;;;;;;;;5030502;28;20503;-84
2022/01/03 08:41:17;;;;;;;55.00;31.55;;;;;;;;;;5029579;28;20080;-84
2022/01/03 08:43:43;;;;;;;61.45;35.38;;;;;;;;;;5015355;28;20021;-84
2022/01/03 08:46:10;;;;;;;55.78;34.08;;;;;;;;;;5010018;28;20025;-83
2022/01/03 08:48:36;;;;;;;58.13;35.65;;;;;;;;;;5032616;28;20029;-83
2022/01/03 08:51:03;;;;;;;56.90;37.83;;;;;;;;;;5028585;28;20025;-83
2022/01/03 08:53:29;;;;;;;54.78;34.88;;;;;;;;;;5029684;28;20037;-83
2022/01/03 08:55:56;;;;;;;58.97;35.45;;;;;;;;;;5023884;28;20030;-83
2022/01/03 08:58:23;;;;;;;60.25;38.13;;;;;;;;;;5030482;28;20056;-84
2022/01/03 09:00:50;;;;;;;62.25;41.00;;;;;;;;;;5025724;28;20076;-84
2022/01/03 09:03:17;;;;;;;61.00;39.05;;;;;;;;;;5030415;28;20022;-84
2022/01/03 09:05:43;;;;;;;71.88;39.83;;;;;;;;;;5016418;28;20048;-83
2022/01/03 09:08:10;;;;;;;65.63;40.03;;;;;;;;;;5034460;28;20037;-83
2022/01/03 09:10:37;;;;;;;62.08;39.95;;;;;;;;;;5015028;28;20061;-84
2022/01/03 09:13:04;;;;;;;71.95;42.55;;;;;;;;;;5030143;28;20029;-82
2022/01/03 09:15:30;;;;;;;68.32;41.10;;;;;;;;;;5031885;28;20488;-84
2022/01/03 09:17:56;;;;;;;64.53;42.53;;;;;;;;;;5027192;28;20487;-82
2022/01/03 09:20:23;;;;;;;55.13;34.40;;;;;;;;;;5014427;28;20049;-83
2022/01/03 09:22:53;;;;;;;50.03;33.05;;;;;;;;;;5016034;28;20108;-83
2022/01/03 09:30:48;;;;;;;62.65;39.75;;;;;;;;;;5033708;28;20179;-82
2022/01/03 09:33:14;;;;;;;75.35;44.00;;;;;;;;;;5031397;28;20021;-82
2022/01/03 09:35:41;;;;;;;74.40;45.05;;;;;;;;;;5034508;28;20021;-83
2022/01/03 09:38:08;;;;;;;79.82;49.60;;;;;;;;;;5032984;28;20021;-83
2022/01/03 09:40:35;;;;;;;75.07;46.97;;;;;;;;;;5032995;28;20025;-82
2022/01/03 09:43:02;;;;;;;83.30;50.05;;;;;;;;;;5024848;28;20061;-82
2022/01/03 09:45:32;;;;;;;80.85;47.55;;;;;;;;;;5027900;28;20031;-83
2022/01/03 09:47:59;;;;;;;75.80;47.25;;;;;;;;;;5028251;28;20103;-84
2022/01/03 09:50:26;;;;;;;73.93;46.63;;;;;;;;;;5025063;28;20025;-83
2022/01/03 09:52:52;;;;;;;76.13;47.38;;;;;;;;;;5031502;28;20038;-84
2022/01/03 09:55:20;;;;;;;78.50;45.67;;;;;;;;;;5007653;28;20163;-82
2022/01/03 09:57:46;;;;;;;74.82;44.75;;;;;;;;;;5012075;28;20116;-84
2022/01/03 10:00:14;;;;;;;77.40;45.20;;;;;;;;;;5014414;28;20601;-82
2022/01/03 10:02:40;;;;;;;82.47;50.45;;;;;;;;;;5026839;28;20458;-84
2022/01/03 10:05:07;;;;;;;89.72;48.95;;;;;;;;;;5025467;28;20044;-83
2022/01/03 10:07:35;;;;;;;80.05;48.85;;;;;;;;;;5026555;28;20017;-81
2022/01/03 10:10:01;;;;;;;85.97;48.92;;;;;;;;;;5027922;28;20032;-83
2022/01/03 10:12:28;;;;;;;73.63;44.28;;;;;;;;;;5033061;28;20072;-84
2022/01/03 10:14:54;;;;;;;69.63;40.60;;;;;;;;;;5011496;28;20108;-83
2022/01/03 10:17:20;;;;;;;64.22;36.33;;;;;;;;;;5014345;28;20104;-83
2022/01/03 10:19:50;;;;;;;52.88;31.85;;;;;;;;;;5030792;28;20496;-82
2022/01/03 10:22:25;;;;;;;45.30;28.23;;;;;;;;;;5032837;28;20492;-82
2022/01/03 10:24:52;;;;;;;48.30;28.27;;;;;;;;;;5022756;28;20051;-81
2022/01/03 10:27:19;;;;;;;45.75;25.48;;;;;;;;;;5029689;28;20405;-82
2022/01/03 10:29:55;;;;;;;40.92;22.95;;;;;;;;;;5023525;28;20022;-83
2022/01/03 10:32:27;;;;;;;35.38;22.85;;;;;;;;;;5030251;28;20104;-83
2022/01/03 10:34:54;;;;;;;36.92;22.13;;;;;;;;;;5026051;28;20032;-82
2022/01/03 10:37:33;;;;;;;39.65;22.85;;;;;;;;;;5017884;28;20018;-82
2022/01/03 10:39:59;;;;;;;36.05;22.55;;;;;;;;;;5005640;28;20044;-82
2022/01/03 10:42:25;;;;;;;38.83;22.33;;;;;;;;;;5024794;28;20081;-81
2022/01/03 10:44:51;;;;;;;37.85;23.05;;;;;;;;;;5008919;28;20029;-82
2022/01/03 10:47:41;;;;;;;34.15;22.05;;;;;;;;;;5026817;28;20018;-82
2022/01/03 10:50:18;;;;;;;39.65;22.80;;;;;;;;;;5027747;28;20034;-83
2022/01/03 10:52:46;;;;;;;39.03;23.77;;;;;;;;;;5032560;28;20048;-82
2022/01/03 10:55:15;;;;;;;40.97;23.50;;;;;;;;;;5034500;28;20032;-81
2022/01/03 10:57:58;;;;;;;33.00;22.15;;;;;;;;;;5022306;28;20068;-79
2022/01/03 11:00:29;;;;;;;41.15;22.92;;;;;;;;;;5034212;28;20105;-83
2022/01/03 11:03:30;;;;;;;37.95;23.02;;;;;;;;;;5028707;28;20040;-82
2022/01/03 11:06:08;;;;;;;37.85;22.45;;;;;;;;;;5025077;28;20388;-81
2022/01/03 11:11:43;;;;;;;42.00;24.15;;;;;;;;;;5026536;28;20107;-83
2022/01/03 11:14:11;;;;;;;37.03;22.60;;;;;;;;;;5024319;28;20128;-83
2022/01/03 11:16:42;;;;;;;38.80;21.83;;;;;;;;;;5024179;28;20087;-82
2022/01/03 11:19:09;;;;;;;32.78;20.30;;;;;;;;;;5023642;28;20194;-82
2022/01/03 11:21:44;;;;;;;35.08;19.23;;;;;;;;;;5033927;28;20026;-84
2022/01/03 11:24:14;;;;;;;32.67;18.45;;;;;;;;;;5036085;28;20045;-82
2022/01/03 11:26:52;;;;;;;31.83;18.13;;;;;;;;;;5035249;28;20092;-83
2022/01/03 11:29:18;;;;;;;35.47;18.27;;;;;;;;;;5018643;28;20017;-83
2022/01/03 11:31:44;;;;;;;28.15;16.70;;;;;;;;;;5036531;28;20434;-82
2022/01/03 11:34:12;;;;;;;31.60;18.05;;;;;;;;;;5027850;28;20037;-82
2022/01/03 11:36:39;;;;;;;38.15;18.38;;;;;;;;;;5018554;28;20049;-84
2022/01/03 11:39:09;;;;;;;31.30;18.73;;;;;;;;;;5018823;28;20030;-82
2022/01/03 11:41:36;;;;;;;35.05;19.70;;;;;;;;;;5035710;28;20031;-83
2022/01/03 11:44:04;;;;;;;34.97;21.80;;;;;;;;;;5016111;28;20030;-83
2022/01/03 11:46:30;;;;;;;39.55;22.48;;;;;;;;;;5032141;28;20072;-82
2022/01/03 11:48:57;;;;;;;42.08;22.58;;;;;;;;;;5035091;28;20100;-84
2022/01/03 11:51:24;;;;;;;35.17;21.30;;;;;;;;;;5014176;28;20557;-85
2022/01/03 11:53:51;;;;;;;39.08;21.95;;;;;;;;;;5032808;28;20025;-84
2022/01/03 11:56:19;;;;;;;33.97;21.67;;;;;;;;;;5024773;28;20477;-84
2022/01/03 11:59:01;;;;;;;41.80;22.35;;;;;;;;;;5007569;28;20108;-82
2022/01/03 12:04:36;;;;;;;36.25;21.30;;;;;;;;;;5022758;28;20041;-82
2022/01/03 12:07:14;;;;;;;31.13;21.10;;;;;;;;;;5017900;28;20026;-83
2022/01/03 12:09:46;;;;;;;32.00;20.73;;;;;;;;;;5035649;28;20022;-82
2022/01/03 12:12:47;;;;;;;38.30;22.15;;;;;;;;;;5035844;28;20029;-82
2022/01/03 12:15:34;;;;;;;39.83;21.95;;;;;;;;;;4936048;29;20084;-82
2022/01/03 12:18:01;;;;;;;48.55;29.02;;;;;;;;;;5027111;28;20052;-83
2022/01/03 12:20:41;;;;;;;58.53;34.42;;;;;;;;;;5017453;28;20114;-82
2022/01/03 12:23:09;;;;;;;65.78;38.55;;;;;;;;;;5015670;28;20419;-84
2022/01/03 12:25:36;;;;;;;80.20;45.85;;;;;;;;;;5035295;28;20021;-81
2022/01/03 12:28:04;;;;;;;83.40;46.85;;;;;;;;;;5034915;28;20025;-83
2022/01/03 12:30:34;;;;;;;83.68;48.30;;;;;;;;;;5015483;28;20057;-84
2022/01/03 12:33:06;;;;;;;82.30;48.47;;;;;;;;;;5035536;28;20029;-84
2022/01/03 12:35:34;;;;;;;77.93;46.83;;;;;;;;;;5017839;28;20388;-84
2022/01/03 12:38:03;;;;;;;76.10;44.75;;;;;;;;;;5035257;28;20029;-82
2022/01/03 12:40:31;;;;;;;68.45;41.60;;;;;;;;;;5041832;28;20025;-83
2022/01/03 12:43:05;;;;;;;79.38;41.85;;;;;;;;;;5027086;28;20029;-83
2022/01/03 12:45:35;;;;;;;78.40;41.80;;;;;;;;;;5040231;28;20029;-83
2022/01/03 12:48:15;;;;;;;67.45;39.15;;;;;;;;;;5034793;28;20104;-83
2022/01/03 12:50:42;;;;;;;82.55;42.40;;;;;;;;;;5017103;28;20053;-83
2022/01/03 12:53:09;;;;;;;71.03;39.97;;;;;;;;;;5034381;28;20029;-83
2022/01/03 12:55:38;;;;;;;72.50;39.40;;;;;;;;;;5016322;28;20029;-83
2022/01/03 12:58:17;;;;;;;73.75;38.33;;;;;;;;;;5017132;28;20037;-82
2022/01/03 13:00:43;;;;;;;65.00;37.50;;;;;;;;;;5001917;28;20078;-83
2022/01/03 13:03:23;;;;;;;65.47;38.95;;;;;;;;;;5034655;28;20448;-84
2022/01/03 13:06:09;;;;;;;72.18;41.40;;;;;;;;;;5034169;28;20025;-83
2022/01/03 13:08:37;;;;;;;78.95;46.22;;;;;;;;;;5031487;28;20037;-83
2022/01/03 13:11:06;;;;;;;81.07;47.67;;;;;;;;;;5029410;28;20021;-83
2022/01/03 13:13:32;;;;;;;73.80;44.05;;;;;;;;;;5031355;28;20554;-83
2022/01/03 13:15:59;;;;;;;83.93;47.85;;;;;;;;;;5031803;28;20029;-82
2022/01/03 13:18:25;;;;;;;82.05;50.17;;;;;;;;;;5035251;28;20416;-82
2022/01/03 13:20:59;;;;;;;88.75;54.95;;;;;;;;;;5035828;28;20037;-83
2022/01/03 13:23:25;;;;;;;103.40;60.40;;;;;;;;;;5012811;28;20068;-83
2022/01/03 13:26:02;;;;;;;109.53;66.30;;;;;;;;;;5035009;28;20481;-83
2022/01/03 13:28:28;;;;;;;100.35;58.58;;;;;;;;;;5034562;28;20524;-84
2022/01/03 13:31:01;;;;;;;94.30;53.53;;;;;;;;;;5034641;28;20022;-83
2022/01/03 13:33:28;;;;;;;84.95;48.95;;;;;;;;;;5035044;28;20018;-83
2022/01/03 13:36:01;;;;;;;76.47;46.95;;;;;;;;;;5027423;28;20026;-84
2022/01/03 13:38:30;;;;;;;72.57;43.60;;;;;;;;;;5016876;28;20026;-83
2022/01/03 13:41:17;;;;;;;69.65;42.35;;;;;;;;;;5034286;28;20090;-83
2022/01/03 13:43:49;;;;;;;67.15;41.55;;;;;;;;;;5033710;28;20049;-83
2022/01/03 13:49:13;;;;;;;69.05;45.03;;;;;;;;;;5034441;28;20121;-85
2022/01/03 13:51:46;;;;;;;64.55;42.50;;;;;;;;;;5014899;28;20380;-84
2022/01/03 13:54:32;;;;;;;73.72;41.78;;;;;;;;;;5015862;28;20060;-84
2022/01/03 13:57:00;;;;;;;68.80;42.67;;;;;;;;;;5033692;28;20029;-83
2022/01/03 13:59:28;;;;;;;73.63;40.30;;;;;;;;;;5015312;28;20377;-84
2022/01/03 14:01:55;;;;;;;69.03;40.85;;;;;;;;;;5016060;28;20072;-82
2022/01/03 14:04:22;;;;;;;72.90;42.45;;;;;;;;;;5033898;28;20037;-83
2022/01/03 14:07:06;;;;;;;70.85;44.85;;;;;;;;;;5033857;28;20025;-84
2022/01/03 14:09:41;;;;;;;73.53;43.53;;;;;;;;;;5033663;28;20025;-83
2022/01/03 14:12:11;;;;;;;74.80;44.35;;;;;;;;;;5033435;28;20025;-83
2022/01/03 14:14:38;;;;;;;78.57;45.42;;;;;;;;;;5033684;28;20407;-83
2022/01/03 14:17:06;;;;;;;70.95;44.38;;;;;;;;;;5033040;28;20021;-84
2022/01/03 14:19:33;;;;;;;69.75;43.08;;;;;;;;;;5013772;28;20237;-84
2022/01/03 14:22:10;;;;;;;71.20;44.17;;;;;;;;;;5007072;28;20473;-83
2022/01/03 14:24:37;;;;;;;62.58;44.00;;;;;;;;;;5033560;28;20021;-83
2022/01/03 14:27:05;;;;;;;78.35;45.63;;;;;;;;;;5015803;28;20064;-83
2022/01/03 14:29:36;;;;;;;70.45;44.35;;;;;;;;;;5016002;28;20494;-84
2022/01/03 14:32:11;;;;;;;79.05;48.22;;;;;;;;;;5033060;28;20037;-83
2022/01/03 14:34:37;;;;;;;74.22;46.88;;;;;;;;;;5016446;28;20025;-83
2022/01/03 14:37:05;;;;;;;80.93;48.67;;;;;;;;;;5017314;28;20048;-82
2022/01/03 14:39:31;;;;;;;75.38;45.22;;;;;;;;;;5024109;28;20030;-82
2022/01/03 14:42:00;;;;;;;75.25;45.75;;;;;;;;;;5033328;28;20038;-83
2022/01/03 14:44:27;;;;;;;75.68;46.10;;;;;;;;;;5032827;28;20029;-83
2022/01/03 14:47:04;;;;;;;80.40;47.65;;;;;;;;;;5015620;28;20026;-82
2022/01/03 14:49:31;;;;;;;76.18;46.03;;;;;;;;;;5011758;28;20033;-83